createdAt,value
2022-12-06T00:00:06.138Z,97760.06
2022-12-06T00:02:53.095Z,97758.59
2022-12-06T00:05:44.705Z,97760.50
2022-12-06T00:08:33.244Z,97761.25
2022-12-06T00:11:23.385Z,97753.38
2022-12-06T00:14:11.409Z,97763.22
2022-12-06T00:16:58.519Z,97764.41
2022-12-06T00:19:45.476Z,97754.59
2022-12-06T00:22:32.405Z,97758.50
2022-12-06T00:25:19.302Z,97757.03
2022-12-06T00:28:06.286Z,97749.00
2022-12-06T00:30:58.048Z,97751.97
2022-12-06T00:33:45.462Z,97749.66
2022-12-06T00:36:34.822Z,97751.38
2022-12-06T00:39:21.745Z,97743.72
2022-12-06T00:42:08.667Z,97738.38
2022-12-06T00:44:55.596Z,97740.56
2022-12-06T00:47:42.524Z,97744.75
2022-12-06T00:50:29.701Z,97753.84
2022-12-06T00:53:17.261Z,97755.75
2022-12-06T00:56:04.604Z,97756.28
2022-12-06T00:58:51.671Z,97765.34
2022-12-06T01:01:38.818Z,97764.88
2022-12-06T01:04:25.759Z,97761.50
2022-12-06T01:07:12.677Z,97758.75
2022-12-06T01:09:59.738Z,97751.91
2022-12-06T01:12:46.759Z,97763.84
2022-12-06T01:15:36.690Z,97752.06
2022-12-06T01:18:24.048Z,97750.09
2022-12-06T01:21:14.071Z,97747.88
2022-12-06T01:24:01.019Z,97742.66
2022-12-06T01:26:47.932Z,97743.81
2022-12-06T01:29:35.182Z,97734.78
2022-12-06T01:32:22.075Z,97742.09
2022-12-06T01:35:09.436Z,97740.16
2022-12-06T01:37:56.330Z,97737.66
2022-12-06T01:40:45.776Z,97728.78
2022-12-06T01:43:43.959Z,97741.06
2022-12-06T01:46:39.192Z,97744.03
2022-12-06T01:49:32.272Z,97736.50
2022-12-06T01:52:22.475Z,97732.34
2022-12-06T01:55:10.913Z,97734.09
2022-12-06T01:58:02.583Z,97738.47
2022-12-06T02:00:49.684Z,97735.56
2022-12-06T02:03:37.540Z,97731.38
2022-12-06T02:06:24.640Z,97728.19
2022-12-06T02:09:13.060Z,97730.81
2022-12-06T02:11:59.987Z,97730.28
2022-12-06T02:14:50.500Z,97719.25
2022-12-06T02:18:05.898Z,97726.81
2022-12-06T02:21:06.255Z,97719.44
2022-12-06T02:24:25.019Z,97725.63
2022-12-06T02:27:50.840Z,97722.41
2022-12-06T02:31:16.890Z,97727.09
2022-12-06T02:34:14.646Z,97722.19
2022-12-06T02:37:12.849Z,97714.78
2022-12-06T02:40:07.618Z,97712.34
2022-12-06T02:43:02.787Z,97714.75
2022-12-06T02:45:54.798Z,97706.13
2022-12-06T02:48:44.417Z,97706.94
2022-12-06T02:51:33.416Z,97711.41
2022-12-06T02:54:22.324Z,97706.66
2022-12-06T02:57:09.280Z,97706.94
2022-12-06T02:59:57.787Z,97709.63
2022-12-06T03:02:46.409Z,97702.94
2022-12-06T03:05:42.312Z,97696.03
2022-12-06T03:09:24.592Z,97695.88
2022-12-06T03:12:39.132Z,97698.56
2022-12-06T03:15:48.421Z,97702.53
2022-12-06T03:18:49.849Z,97699.38
2022-12-06T03:21:46.624Z,97692.72
2022-12-06T03:24:36.106Z,97702.53
2022-12-06T03:27:24.283Z,97698.16
2022-12-06T03:30:13.740Z,97695.03
2022-12-06T03:33:02.012Z,97687.41
2022-12-06T03:35:51.386Z,97695.53
2022-12-06T03:38:46.961Z,97682.81
2022-12-06T03:41:41.027Z,97690.13
2022-12-06T03:44:28.005Z,97688.66
2022-12-06T03:47:22.778Z,97687.91
2022-12-06T03:50:32.456Z,97692.53
2022-12-06T03:53:20.425Z,97685.63
2022-12-06T03:56:07.627Z,97675.25
2022-12-06T03:58:54.774Z,97677.69
2022-12-06T04:01:41.875Z,97677.22
2022-12-06T04:04:28.827Z,97687.78
2022-12-06T04:07:15.952Z,97688.31
2022-12-06T04:10:03.976Z,97684.19
2022-12-06T04:13:02.973Z,97684.69
2022-12-06T04:15:49.915Z,97691.00
2022-12-06T04:18:36.890Z,97684.78
2022-12-06T04:21:53.177Z,97675.22
2022-12-06T04:24:40.133Z,97676.16
2022-12-06T04:27:45.435Z,97675.69
2022-12-06T04:30:51.206Z,97677.34
2022-12-06T04:33:56.394Z,97679.06
2022-12-06T04:37:02.129Z,97669.50
2022-12-06T04:39:49.172Z,97676.16
2022-12-06T04:42:54.595Z,97672.72
2022-12-06T04:45:41.513Z,97677.13
2022-12-06T04:48:28.474Z,97675.69
2022-12-06T04:51:16.458Z,97673.28
2022-12-06T04:54:03.697Z,97669.41
2022-12-06T04:56:50.672Z,97671.88
2022-12-06T04:59:39.782Z,97669.41
2022-12-06T05:02:26.709Z,97672.84
2022-12-06T05:05:13.743Z,97672.03
2022-12-06T05:08:00.710Z,97668.16
2022-12-06T05:10:49.147Z,97671.28
2022-12-06T05:13:36.406Z,97674.47
2022-12-06T05:16:23.422Z,97678.84
2022-12-06T05:19:13.263Z,97666.53
2022-12-06T05:22:00.231Z,97671.19
2022-12-06T05:24:47.128Z,97671.41
2022-12-06T05:27:36.150Z,97669.69
2022-12-06T05:30:23.613Z,97676.81
2022-12-06T05:33:10.542Z,97675.59
2022-12-06T05:35:57.798Z,97676.81
2022-12-06T05:38:51.128Z,97668.25
2022-12-06T05:41:38.628Z,97669.94
2022-12-06T05:44:25.620Z,97674.66
2022-12-06T05:47:12.554Z,97666.84
2022-12-06T05:49:59.753Z,97669.03
2022-12-06T05:52:46.946Z,97663.09
2022-12-06T05:55:33.883Z,97664.78
2022-12-06T05:58:20.840Z,97657.69
2022-12-06T06:01:09.037Z,97656.72
2022-12-06T06:03:55.991Z,97657.63
2022-12-06T06:06:42.967Z,97654.94
2022-12-06T06:09:29.905Z,97657.59
2022-12-06T06:12:16.853Z,97649.25
2022-12-06T06:15:07.084Z,97646.00
2022-12-06T06:17:54.273Z,97650.22
2022-12-06T06:20:41.244Z,97646.81
2022-12-06T06:23:29.054Z,97646.34
2022-12-06T06:26:15.964Z,97640.72
2022-12-06T06:29:02.931Z,97647.59
2022-12-06T06:31:49.875Z,97643.41
2022-12-06T06:34:36.990Z,97643.41
2022-12-06T06:37:23.921Z,97646.84
2022-12-06T06:40:11.425Z,97655.34
2022-12-06T06:43:17.873Z,97658.31
2022-12-06T06:46:07.058Z,97661.31
2022-12-06T06:48:54.075Z,97659.13
2022-12-06T06:51:41.008Z,97663.72
2022-12-06T06:54:28.361Z,97663.44
2022-12-06T06:57:17.778Z,97664.59
2022-12-06T07:00:05.890Z,97666.56
2022-12-06T07:02:52.839Z,97676.94
2022-12-06T07:05:39.781Z,97671.06
2022-12-06T07:08:28.550Z,97676.25
2022-12-06T07:11:16.189Z,97672.78
2022-12-06T07:14:03.527Z,97677.19
2022-12-06T07:16:50.522Z,97672.56
2022-12-06T07:19:37.450Z,97671.56
2022-12-06T07:22:24.359Z,97672.09
2022-12-06T07:25:11.436Z,97677.47
2022-12-06T07:27:58.484Z,97677.94
2022-12-06T07:30:45.471Z,97687.06
2022-12-06T07:33:32.445Z,97683.69
2022-12-06T07:36:19.899Z,97678.91
2022-12-06T07:39:11.564Z,97687.19
2022-12-06T07:42:19.808Z,97679.53
2022-12-06T07:45:08.813Z,97676.34
2022-12-06T07:47:55.789Z,97678.03
2022-12-06T07:50:42.729Z,97681.41
2022-12-06T07:53:29.709Z,97679.41
2022-12-06T07:56:17.745Z,97680.53
2022-12-06T07:59:04.962Z,97674.88
2022-12-06T08:01:52.959Z,97677.53
2022-12-06T08:04:40.033Z,97679.88
2022-12-06T08:07:27.249Z,97682.44
2022-12-06T08:10:14.268Z,97673.91
2022-12-06T08:13:03.561Z,97682.72
2022-12-06T08:15:50.552Z,97676.28
2022-12-06T08:18:37.608Z,97683.44
2022-12-06T08:21:26.297Z,97676.16
2022-12-06T08:24:13.264Z,97687.25
2022-12-06T08:27:00.234Z,97683.47
2022-12-06T08:29:47.107Z,97680.59
2022-12-06T08:32:34.071Z,97682.78
2022-12-06T08:35:21.377Z,97680.00
2022-12-06T08:38:08.445Z,97681.13
2022-12-06T08:40:55.355Z,97688.50
2022-12-06T08:43:42.286Z,97688.88
2022-12-06T08:46:30.571Z,97691.41
2022-12-06T08:49:17.624Z,97681.34
2022-12-06T08:52:04.755Z,97681.78
2022-12-06T08:54:51.679Z,97691.06
2022-12-06T08:57:38.744Z,97696.09
2022-12-06T09:00:25.728Z,97693.84
2022-12-06T09:03:12.570Z,97699.47
2022-12-06T09:06:02.453Z,97693.78
2022-12-06T09:08:49.875Z,97692.63
2022-12-06T09:11:37.345Z,97691.41
2022-12-06T09:14:24.228Z,97688.06
2022-12-06T09:17:11.151Z,97686.47
2022-12-06T09:20:03.733Z,97687.63
2022-12-06T09:22:52.345Z,97690.09
2022-12-06T09:25:42.255Z,97687.84
2022-12-06T09:28:30.086Z,97682.13
2022-12-06T09:31:18.491Z,97681.84
2022-12-06T09:34:09.901Z,97687.72
2022-12-06T09:37:03.544Z,97686.06
2022-12-06T09:39:57.388Z,97689.00
2022-12-06T09:43:58.024Z,97686.47
2022-12-06T09:47:09.045Z,97691.00
2022-12-06T09:50:39.078Z,97682.28
2022-12-06T09:54:02.281Z,97679.63
2022-12-06T09:57:00.903Z,97681.22
2022-12-06T10:00:23.199Z,97676.97
2022-12-06T10:03:28.771Z,97672.78
2022-12-06T10:06:21.009Z,97670.38
2022-12-06T10:09:54.156Z,97661.53
2022-12-06T10:13:04.520Z,97661.22
2022-12-06T10:16:26.512Z,97656.13
2022-12-06T10:19:38.276Z,97655.72
2022-12-06T10:23:02.441Z,97652.91
2022-12-06T10:26:13.123Z,97651.09
2022-12-06T10:29:25.960Z,97638.63
2022-12-06T10:32:42.388Z,97642.25
2022-12-06T10:36:03.332Z,97640.69
2022-12-06T10:39:03.351Z,97637.69
2022-12-06T10:42:04.893Z,97635.28
2022-12-06T10:44:57.386Z,97638.28
2022-12-06T10:47:45.229Z,97636.13
2022-12-06T10:50:36.910Z,97635.91
2022-12-06T10:53:31.770Z,97627.47
2022-12-06T10:56:24.322Z,97620.38
2022-12-06T10:59:34.766Z,97615.91
2022-12-06T11:02:59.031Z,97614.56
2022-12-06T11:06:02.205Z,97615.50
2022-12-06T11:08:51.109Z,97613.34
2022-12-06T11:11:40.534Z,97616.84
2022-12-06T11:14:41.586Z,97619.91
2022-12-06T11:17:34.434Z,97612.81
2022-12-06T11:20:30.376Z,97609.47
2022-12-06T11:23:51.228Z,97598.41
2022-12-06T11:26:49.202Z,97613.09
2022-12-06T11:29:37.359Z,97614.25
2022-12-06T11:32:24.292Z,97612.16
2022-12-06T11:35:18.655Z,97607.06
2022-12-06T11:38:07.751Z,97608.22
2022-12-06T11:40:55.245Z,97607.56
2022-12-06T11:43:42.307Z,97601.94
2022-12-06T11:46:29.549Z,97600.50
2022-12-06T11:49:31.780Z,97602.47
2022-12-06T11:52:41.796Z,97608.09
2022-12-06T11:55:35.041Z,97602.75
2022-12-06T11:58:31.164Z,97607.41
2022-12-06T12:01:18.067Z,97602.91
2022-12-06T12:04:31.670Z,97603.88
2022-12-06T12:07:23.693Z,97604.53
2022-12-06T12:10:30.701Z,97606.41
2022-12-06T12:13:39.576Z,97595.53
2022-12-06T12:16:49.246Z,97598.84
2022-12-06T12:19:41.501Z,97589.50
2022-12-06T12:22:35.756Z,97590.25
2022-12-06T12:25:33.680Z,97593.88
2022-12-06T12:28:29.154Z,97580.47
2022-12-06T12:31:26.422Z,97583.19
2022-12-06T12:34:31.368Z,97578.06
2022-12-06T12:37:21.919Z,97569.75
2022-12-06T12:40:41.065Z,97574.06
2022-12-06T12:43:33.053Z,97575.19
2022-12-06T12:46:21.833Z,97572.38
2022-12-06T12:49:36.118Z,97572.25
2022-12-06T12:52:39.122Z,97562.06
2022-12-06T12:55:26.209Z,97557.16
2022-12-06T12:58:13.208Z,97558.00
2022-12-06T13:01:12.010Z,97564.88
2022-12-06T13:04:04.677Z,97560.81
2022-12-06T13:06:58.227Z,97564.25
2022-12-06T13:10:04.171Z,97563.53
2022-12-06T13:12:55.517Z,97563.28
2022-12-06T13:15:48.565Z,97556.44
2022-12-06T13:18:42.823Z,97554.56
2022-12-06T13:21:41.148Z,97560.38
2022-12-06T13:24:33.210Z,97562.66
2022-12-06T13:27:22.248Z,97553.94
2022-12-06T13:30:18.151Z,97560.06
2022-12-06T13:33:20.506Z,97561.66
2022-12-06T13:36:11.733Z,97556.44
2022-12-06T13:38:59.385Z,97563.09
2022-12-06T13:42:13.695Z,97555.81
2022-12-06T13:45:01.124Z,97549.66
2022-12-06T13:47:50.633Z,97554.84
2022-12-06T13:50:58.829Z,97553.94
2022-12-06T13:54:06.866Z,97557.03
2022-12-06T13:56:58.027Z,97563.09
2022-12-06T13:59:44.901Z,97558.50
2022-12-06T14:02:44.889Z,97555.38
2022-12-06T14:06:15.514Z,97551.00
2022-12-06T14:09:04.825Z,97553.09
2022-12-06T14:11:53.084Z,97557.16
2022-12-06T14:14:39.968Z,97555.47
2022-12-06T14:18:02.261Z,97556.84
2022-12-06T14:20:48.020Z,97555.72
2022-12-06T14:23:45.227Z,97560.28
2022-12-06T14:26:34.690Z,97560.19
2022-12-06T14:29:26.338Z,97560.91
2022-12-06T14:32:17.440Z,97556.94
2022-12-06T14:35:26.351Z,97548.94
2022-12-06T14:38:30.264Z,97549.75
2022-12-06T14:41:38.182Z,97552.97
2022-12-06T14:44:14.720Z,97546.31
2022-12-06T14:46:42.715Z,97549.75
2022-12-06T14:49:34.424Z,97548.81
2022-12-06T14:52:01.240Z,97543.09
2022-12-06T14:54:42.600Z,97541.53
2022-12-06T14:57:30.306Z,97539.75
2022-12-06T15:00:27.480Z,97541.94
2022-12-06T15:03:25.915Z,97531.44
2022-12-06T15:06:17.138Z,97527.25
2022-12-06T15:09:10.504Z,97533.31
2022-12-06T15:11:57.904Z,97522.78
2022-12-06T15:14:35.268Z,97522.06
2022-12-06T15:17:05.110Z,97525.88
2022-12-06T15:19:34.303Z,97531.09
2022-12-06T15:22:01.222Z,97533.09
2022-12-06T15:24:29.165Z,97523.50
2022-12-06T15:26:55.822Z,97524.25
2022-12-06T15:29:23.251Z,97519.66
2022-12-06T15:31:52.801Z,97519.97
2022-12-06T15:34:23.084Z,97517.78
2022-12-06T15:36:59.379Z,97513.84
2022-12-06T15:39:35.853Z,97511.94
2022-12-06T15:42:03.594Z,97504.97
2022-12-06T15:44:30.188Z,97502.25
2022-12-06T15:46:56.840Z,97496.22
2022-12-06T15:49:28.530Z,97500.28
2022-12-06T15:51:55.124Z,97497.88
2022-12-06T15:54:24.633Z,97489.22
2022-12-06T15:56:52.087Z,97485.50
2022-12-06T15:59:19.685Z,97492.78
2022-12-06T16:01:48.194Z,97488.41
2022-12-06T16:04:17.352Z,97483.81
2022-12-06T16:06:44.606Z,97489.44
2022-12-06T16:09:12.684Z,97481.63
2022-12-06T16:11:39.691Z,97488.50
2022-12-06T16:14:06.511Z,97479.66
2022-12-06T16:16:33.933Z,97473.41
2022-12-06T16:19:02.123Z,97472.69
2022-12-06T16:21:37.234Z,97483.94
2022-12-06T16:24:13.462Z,97478.84
2022-12-06T16:26:44.063Z,97468.09
2022-12-06T16:29:20.696Z,97467.38
2022-12-06T16:31:47.582Z,97461.97
2022-12-06T16:34:15.010Z,97464.56
2022-12-06T16:37:06.574Z,97468.50
2022-12-06T16:39:34.946Z,97467.88
2022-12-06T16:42:01.781Z,97468.69
2022-12-06T16:44:28.455Z,97470.34
2022-12-06T16:46:55.089Z,97469.25
2022-12-06T16:52:14.169Z,97458.97
2022-12-06T16:54:43.714Z,97460.81
2022-12-06T16:57:14.641Z,97465.19
2022-12-06T16:59:42.254Z,97456.88
2022-12-06T17:02:29.035Z,97451.38
2022-12-06T17:04:57.027Z,97446.47
2022-12-06T17:07:23.829Z,97449.91
2022-12-06T17:09:50.562Z,97456.78
2022-12-06T17:12:17.189Z,97463.00
2022-12-06T17:14:43.964Z,97463.31
2022-12-06T17:17:20.181Z,97464.25
2022-12-06T17:19:47.162Z,97474.84
2022-12-06T17:22:18.911Z,97473.41
2022-12-06T17:24:45.723Z,97473.63
2022-12-06T17:27:14.917Z,97481.16
2022-12-06T17:29:43.464Z,97477.06
2022-12-06T17:32:10.463Z,97481.00
2022-12-06T17:34:37.992Z,97478.09
2022-12-06T17:37:05.096Z,97481.00
2022-12-06T17:39:31.690Z,97483.50
2022-12-06T17:42:17.085Z,97479.84
2022-12-06T17:44:43.723Z,97475.19
2022-12-06T17:47:10.412Z,97473.94
2022-12-06T17:49:38.442Z,97469.09
2022-12-06T17:52:05.692Z,97469.25
2022-12-06T17:54:32.300Z,97458.97
2022-12-06T17:56:58.914Z,97468.75
2022-12-06T17:59:27.655Z,97468.94
2022-12-06T18:02:15.215Z,97472.19
2022-12-06T18:04:43.939Z,97475.38
2022-12-06T18:07:12.776Z,97476.63
2022-12-06T18:09:39.369Z,97482.56
2022-12-06T18:12:08.512Z,97478.38
2022-12-06T18:14:35.209Z,97480.00
2022-12-06T18:17:02.788Z,97482.59
2022-12-06T18:19:31.730Z,97483.97
2022-12-06T18:21:58.259Z,97475.53
2022-12-06T18:24:29.112Z,97478.25
2022-12-06T18:26:58.468Z,97477.78
2022-12-06T18:29:25.031Z,97483.78
2022-12-06T18:31:52.493Z,97483.50
2022-12-06T18:34:19.531Z,97483.84
2022-12-06T18:36:46.752Z,97489.78
2022-12-06T18:39:16.183Z,97491.13
2022-12-06T18:41:46.216Z,97488.22
2022-12-06T18:44:13.568Z,97488.00
2022-12-06T18:46:42.565Z,97487.28
2022-12-06T18:49:11.056Z,97483.41
2022-12-06T18:51:38.768Z,97482.47
2022-12-06T18:54:06.220Z,97486.19
2022-12-06T18:56:33.690Z,97497.53
2022-12-06T18:59:03.336Z,97489.94
2022-12-06T19:01:33.392Z,97489.66
2022-12-06T19:04:03.007Z,97478.31
2022-12-06T19:06:33.342Z,97488.47
2022-12-06T19:09:04.455Z,97485.84
2022-12-06T19:11:31.164Z,97474.63
2022-12-06T19:14:01.205Z,97478.41
2022-12-06T19:16:32.884Z,97484.16
2022-12-06T19:19:01.254Z,97465.97
2022-12-06T19:21:28.361Z,97472.41
2022-12-06T19:23:56.536Z,97478.03
2022-12-06T19:26:24.702Z,97481.25
2022-12-06T19:28:51.492Z,97477.22
2022-12-06T19:31:19.673Z,97477.22
2022-12-06T19:33:46.626Z,97483.06
2022-12-06T19:36:15.111Z,97485.69
2022-12-06T19:38:42.613Z,97473.72
2022-12-06T19:41:13.902Z,97481.00
2022-12-06T19:43:59.427Z,97481.84
2022-12-06T19:46:28.469Z,97479.34
2022-12-06T19:49:06.377Z,97480.59
2022-12-06T19:51:37.451Z,97479.13
2022-12-06T19:54:04.999Z,97477.44
2022-12-06T19:56:31.752Z,97480.88
2022-12-06T19:58:59.701Z,97481.84
2022-12-06T20:01:29.934Z,97478.84
2022-12-06T20:03:56.835Z,97475.84
2022-12-06T20:06:27.407Z,97486.66
2022-12-06T20:08:58.510Z,97481.97
2022-12-06T20:11:45.377Z,97480.28
2022-12-06T20:14:16.347Z,97476.63
2022-12-06T20:16:43.823Z,97481.91
2022-12-06T20:19:12.203Z,97479.50
2022-12-06T20:21:38.905Z,97481.84
2022-12-06T20:24:05.839Z,97483.50
2022-12-06T20:26:33.416Z,97482.75
2022-12-06T20:29:00.414Z,97478.91
2022-12-06T20:31:29.072Z,97475.91
2022-12-06T20:33:57.291Z,97477.28
2022-12-06T20:36:24.434Z,97479.47
2022-12-06T20:38:53.109Z,97473.63
2022-12-06T20:41:23.314Z,97476.44
2022-12-06T20:43:51.130Z,97472.97
2022-12-06T20:46:20.454Z,97472.94
2022-12-06T20:48:47.105Z,97472.13
2022-12-06T20:51:21.900Z,97467.13
2022-12-06T20:53:49.432Z,97468.81
2022-12-06T20:56:21.352Z,97466.34
2022-12-06T20:58:51.855Z,97463.94
2022-12-06T21:01:21.162Z,97471.38
2022-12-06T21:03:49.039Z,97472.78
2022-12-06T21:06:17.246Z,97468.63
2022-12-06T21:08:44.011Z,97466.38
2022-12-06T21:11:22.658Z,97466.56
2022-12-06T21:13:54.442Z,97469.28
2022-12-06T21:16:23.967Z,97461.09
2022-12-06T21:19:05.085Z,97472.25
2022-12-06T21:21:37.222Z,97463.66
2022-12-06T21:24:06.209Z,97475.59
2022-12-06T21:26:33.312Z,97478.38
2022-12-06T21:28:59.958Z,97477.19
2022-12-06T21:31:32.202Z,97482.09
2022-12-06T21:33:59.598Z,97478.38
2022-12-06T21:36:26.519Z,97478.31
2022-12-06T21:38:53.675Z,97481.84
2022-12-06T21:41:20.539Z,97488.03
2022-12-06T21:43:47.377Z,97484.91
2022-12-06T21:46:20.060Z,97484.91
2022-12-06T21:48:51.381Z,97480.59
2022-12-06T21:51:18.649Z,97490.28
2022-12-06T21:53:45.257Z,97488.75
2022-12-06T21:56:14.822Z,97490.06
2022-12-06T21:58:41.391Z,97494.22
2022-12-06T22:01:14.215Z,97497.38
2022-12-06T22:03:41.095Z,97499.56
2022-12-06T22:06:10.952Z,97497.50
2022-12-06T22:08:39.364Z,97492.81
2022-12-06T22:11:26.321Z,97500.63
2022-12-06T22:13:52.942Z,97493.78
2022-12-06T22:16:19.575Z,97479.28
2022-12-06T22:18:46.671Z,97483.66
2022-12-06T22:21:19.923Z,97494.16
2022-12-06T22:23:47.435Z,97487.81
2022-12-06T22:26:16.399Z,97489.19
2022-12-06T22:28:43.336Z,97496.47
2022-12-06T22:31:19.434Z,97495.31
2022-12-06T22:33:47.024Z,97509.56
2022-12-06T22:36:15.046Z,97497.94
2022-12-06T22:38:42.061Z,97501.22
2022-12-06T22:41:10.926Z,97497.72
2022-12-06T22:43:38.653Z,97503.59
2022-12-06T22:46:08.489Z,97494.97
2022-12-06T22:48:35.330Z,97489.25
2022-12-06T22:51:19.328Z,97496.25
2022-12-06T22:53:48.841Z,97499.47
2022-12-06T22:56:15.886Z,97500.94
2022-12-06T22:58:42.657Z,97504.88
2022-12-06T23:01:18.488Z,97492.63
2022-12-06T23:03:47.291Z,97493.84
2022-12-06T23:06:15.435Z,97503.19
2022-12-06T23:08:42.636Z,97500.44
2022-12-06T23:11:12.631Z,97497.19
2022-12-06T23:13:39.581Z,97501.22
2022-12-06T23:16:10.359Z,97500.00
2022-12-06T23:18:37.034Z,97497.72
2022-12-06T23:21:09.021Z,97492.81
2022-12-06T23:23:35.969Z,97495.50
2022-12-06T23:26:07.345Z,97495.22
2022-12-06T23:28:34.156Z,97497.56
2022-12-06T23:31:10.302Z,97495.44
2022-12-06T23:33:36.938Z,97500.47
2022-12-06T23:36:12.281Z,97502.13
2022-12-06T23:38:39.672Z,97503.38
2022-12-06T23:41:15.409Z,97499.53
2022-12-06T23:43:42.548Z,97498.06
2022-12-06T23:46:12.396Z,97501.94
2022-12-06T23:48:39.100Z,97496.31
2022-12-06T23:51:17.594Z,97499.84
2022-12-06T23:53:45.175Z,97499.53
2022-12-06T23:56:16.569Z,97498.22
2022-12-06T23:58:44.432Z,97491.31
